Citadel — PBOK — position and weather

sailwx.info

Track history (hours):
 
Tides and Currents Weather Stations Pressure Air Temp Water Temp Dewpoint Dewpoint Depression Visibility Wind Speed Wind Dir Waves Ship Positions

Citadel

Last reported at 2015-Mar-31 10:21 UTC. Time now 2015-Mar-31 12:40 UTC.
Position N 36°35' W 000°46'.

Length 111 m; draft 6.3 m.

Type: Cargo ship. MMSI: 245977000.

Date/timePositionNaut miles runAvg speedWind from/ knotsBaromVisibWave heightAir tempDewpointWater temp
2015-Mar-31 10:21N 36°35' W 000°46'911.1
2015-Mar-31 09:34N 36°37' W 000°36'3311.0
2015-Mar-31 06:32N 36°41' E 000°05'3810.8
2015-Mar-31 03:03N 36°46' E 000°52'1710.0
2015-Mar-31 01:20N 36°49' E 001°13'1010.1
2015-Mar-31 00:23N 36°50' E 001°25'3310.5
2015-Mar-30 21:13N 36°55' E 002°06'710.9
2015-Mar-30 20:32N 36°56' E 002°15'1311.2
2015-Mar-30 19:21N 36°58' E 002°32'810.0
2015-Mar-30 18:33N 36°59' E 002°42'382 9.7
2015-Mar-29 03:12N 37°33' E 010°39'143 8.9
2015-Mar-28 11:09N 36°48' E 013°29'5 8.0
2015-Mar-28 10:33N 36°46' E 013°35'7 7.5
2015-Mar-28 09:33N 36°44' E 013°44'8 7.5
2015-Mar-28 08:33N 36°42' E 013°53'8 7.6
2015-Mar-28 07:34N 36°39' E 014°02'8 7.7
2015-Mar-28 06:34N 36°37' E 014°11'8 7.8
2015-Mar-28 05:34N 36°34' E 014°20'8 7.8
2015-Mar-28 04:33N 36°32' E 014°29'  
Track history (hours):
 
Tides and Currents Weather Stations Pressure Air Temp Water Temp Dewpoint Dewpoint Depression Visibility Wind Speed Wind Dir Waves Ship Positions

Citadel

Last reported at 2015-Mar-31 10:21 UTC. Time now 2015-Mar-31 12:40 UTC.
Position N 36°35' W 000°46'.

Length 111 m; draft 6.3 m.

Type: Cargo ship. MMSI: 245977000.

Date/timePositionNaut miles runAvg speedWind from/ knotsBaromVisibWave heightAir tempDewpointWater temp
2015-Mar-31 10:21N 36°35' W 000°46'911.1
2015-Mar-31 09:34N 36°37' W 000°36'3311.0
2015-Mar-31 06:32N 36°41' E 000°05'3810.8
2015-Mar-31 03:03N 36°46' E 000°52'1710.0
2015-Mar-31 01:20N 36°49' E 001°13'1010.1
2015-Mar-31 00:23N 36°50' E 001°25'3310.5
2015-Mar-30 21:13N 36°55' E 002°06'710.9
2015-Mar-30 20:32N 36°56' E 002°15'1311.2
2015-Mar-30 19:21N 36°58' E 002°32'810.0
2015-Mar-30 18:33N 36°59' E 002°42'382 9.7
2015-Mar-29 03:12N 37°33' E 010°39'143 8.9
2015-Mar-28 11:09N 36°48' E 013°29'5 8.0
2015-Mar-28 10:33N 36°46' E 013°35'7 7.5
2015-Mar-28 09:33N 36°44' E 013°44'8 7.5
2015-Mar-28 08:33N 36°42' E 013°53'8 7.6
2015-Mar-28 07:34N 36°39' E 014°02'8 7.7
2015-Mar-28 06:34N 36°37' E 014°11'8 7.8
2015-Mar-28 05:34N 36°34' E 014°20'8 7.8
2015-Mar-28 04:33N 36°32' E 014°29'  

Dump ship's entire track history